Time;durP1;ratioP1;P1;durP2;ratioP2;P2;SDS_P1;SDS_P2;PMS_P1;PMS_P2;Temp;Humidity;BMP_temperature;BMP_pressure;BME280_temperature;BME280_humidity;BME280_pressure;Samples;Min_cycle;Max_cycle;Signal;HPM_P1;HPM_P2
2023/09/12 00:02:09;;;;;;;9.9;7.1;;;;;;;18.74;84.98828;936.2022;;;;
2023/09/12 00:04:32;;;;;;;10.6;6.9;;;;;;;18.82;84.94434;936.2302;;;;
2023/09/12 00:06:59;;;;;;;8.2;6.9;;;;;;;19.02;83.93457;936.1995;;;;
2023/09/12 00:09:24;;;;;;;10.2;7.1;;;;;;;19.15;83.01758;936.1308;;;;
2023/09/12 00:11:49;;;;;;;12;7.9;;;;;;;19.26;82.63184;936.1345;;;;
2023/09/12 00:14:14;;;;;;;8.6;7.6;;;;;;;19.2;82.60645;936.0658;;;;
2023/09/12 00:16:40;;;;;;;7.6;6.8;;;;;;;18.94;83.57227;936.0765;;;;
2023/09/12 00:19:05;;;;;;;8.3;6.9;;;;;;;18.73;84.90527;936.0887;;;;
2023/09/12 00:21:30;;;;;;;9;7.5;;;;;;;18.73;84.73047;936.0485;;;;
2023/09/12 00:23:55;;;;;;;8.2;7;;;;;;;18.72;84.81055;936.0132;;;;
2023/09/12 00:26:20;;;;;;;8.3;7.1;;;;;;;18.54;85.97168;936.0705;;;;
2023/09/12 00:28:46;;;;;;;8.8;7;;;;;;;18.64;85.5957;936.0984;;;;
2023/09/12 00:31:11;;;;;;;9.1;7.2;;;;;;;18.82;84.80664;935.9771;;;;
2023/09/12 00:33:36;;;;;;;10.1;7.2;;;;;;;18.98;84.0791;935.9302;;;;
2023/09/12 00:36:02;;;;;;;8.2;7;;;;;;;19.08;83.3877;935.9592;;;;
2023/09/12 00:38:27;;;;;;;10.3;7.8;;;;;;;19.04;83.2998;935.9821;;;;
2023/09/12 00:40:52;;;;;;;7.9;7.1;;;;;;;19.08;83.13184;935.918;;;;
2023/09/12 00:43:17;;;;;;;10.2;6.9;;;;;;;19.09;82.63281;935.9267;;;;
2023/09/12 00:45:42;;;;;;;8.4;7.5;;;;;;;18.96;82.92383;935.9266;;;;
2023/09/12 00:48:08;;;;;;;8.2;7;;;;;;;18.75;83.69922;935.9238;;;;
2023/09/12 00:50:33;;;;;;;10.1;7.3;;;;;;;18.56;84.90723;935.928;;;;
2023/09/12 00:52:58;;;;;;;8.3;7.2;;;;;;;18.67;84.53223;935.8806;;;;
2023/09/12 00:55:24;;;;;;;9.5;7.2;;;;;;;18.71;84.44629;935.9416;;;;
2023/09/12 00:57:49;;;;;;;8.3;6.9;;;;;;;18.54;84.93848;935.8977;;;;
2023/09/12 01:00:14;;;;;;;8.3;7;;;;;;;18.54;85.12305;935.9422;;;;
2023/09/12 01:02:40;;;;;;;9.3;7.3;;;;;;;18.61;84.66016;935.8574;;;;
2023/09/12 01:05:05;;;;;;;8.3;7.1;;;;;;;18.49;85.12598;935.8515;;;;
2023/09/12 01:07:30;;;;;;;9.8;7.5;;;;;;;;;;;;;
2023/09/12 01:09:55;;;;;;;7.9;7;;;;;;;;;;;;;
2023/09/12 01:12:21;;;;;;;8.9;7.2;;;;;;;;;;;;;
2023/09/12 01:14:47;;;;;;;9.1;7.3;;;;;;;;;;;;;
2023/09/12 01:17:12;;;;;;;8.3;7.3;;;;;;;;;;;;;
2023/09/12 01:19:37;;;;;;;8.8;7.1;;;;;;;;;;;;;
2023/09/12 01:22:02;;;;;;;8.9;7.4;;;;;;;;;;;;;
2023/09/12 01:24:27;;;;;;;8.6;7.1;;;;;;;;;;;;;
2023/09/12 01:26:52;;;;;;;8.7;6.9;;;;;;;;;;;;;
2023/09/12 01:29:18;;;;;;;8.4;7.5;;;;;;;;;;;;;
2023/09/12 01:31:42;;;;;;;8.4;6.9;;;;;;;;;;;;;
2023/09/12 01:34:07;;;;;;;10.1;7.4;;;;;;;;;;;;;
2023/09/12 01:36:33;;;;;;;8.5;7.1;;;;;;;;;;;;;
2023/09/12 01:38:58;;;;;;;7.7;6.9;;;;;;;;;;;;;
2023/09/12 01:41:23;;;;;;;9.1;7.4;;;;;;;;;;;;;
2023/09/12 01:43:48;;;;;;;9.5;7.8;;;;;;;;;;;;;
2023/09/12 01:46:14;;;;;;;10;7.4;;;;;;;;;;;;;
2023/09/12 01:48:39;;;;;;;12.3;7.3;;;;;;;;;;;;;
2023/09/12 01:51:04;;;;;;;8.4;7.3;;;;;;;;;;;;;
2023/09/12 01:53:29;;;;;;;8.3;7.5;;;;;;;;;;;;;
2023/09/12 01:55:54;;;;;;;9.6;7.2;;;;;;;;;;;;;
2023/09/12 01:58:19;;;;;;;10.1;7.5;;;;;;;;;;;;;
2023/09/12 02:00:45;;;;;;;8.5;7.1;;;;;;;;;;;;;
2023/09/12 02:03:10;;;;;;;8.8;7.5;;;;;;;;;;;;;
2023/09/12 02:05:35;;;;;;;10.5;7.5;;;;;;;;;;;;;
2023/09/12 02:08:01;;;;;;;10.1;7.7;;;;;;;;;;;;;
2023/09/12 02:10:26;;;;;;;9.5;7.2;;;;;;;;;;;;;
2023/09/12 02:12:51;;;;;;;10.3;7.4;;;;;;;;;;;;;
2023/09/12 02:15:18;;;;;;;8.7;7.5;;;;;;;;;;;;;
2023/09/12 02:17:42;;;;;;;8.5;7.3;;;;;;;;;;;;;
2023/09/12 02:20:07;;;;;;;9.1;7.4;;;;;;;;;;;;;
2023/09/12 02:22:33;;;;;;;8.4;7.4;;;;;;;;;;;;;
2023/09/12 02:24:58;;;;;;;8.7;7.8;;;;;;;;;;;;;
2023/09/12 02:27:23;;;;;;;9.6;8.1;;;;;;;;;;;;;
2023/09/12 02:29:48;;;;;;;10.2;7.6;;;;;;;;;;;;;
2023/09/12 02:32:14;;;;;;;9.3;7.7;;;;;;;;;;;;;
2023/09/12 02:34:38;;;;;;;8.7;7.5;;;;;;;;;;;;;
2023/09/12 02:37:03;;;;;;;9.6;7.7;;;;;;;;;;;;;
2023/09/12 02:39:29;;;;;;;9.6;7.7;;;;;;;;;;;;;
2023/09/12 02:41:54;;;;;;;9.1;7.6;;;;;;;;;;;;;
2023/09/12 02:44:19;;;;;;;9.3;7.3;;;;;;;;;;;;;
2023/09/12 02:46:44;;;;;;;10.6;7.3;;;;;;;;;;;;;
2023/09/12 02:49:10;;;;;;;7.8;6.9;;;;;;;;;;;;;
2023/09/12 02:51:35;;;;;;;9.7;7.2;;;;;;;;;;;;;
2023/09/12 02:54:00;;;;;;;8.5;7.3;;;;;;;;;;;;;
2023/09/12 02:56:25;;;;;;;10;7.8;;;;;;;;;;;;;
2023/09/12 02:58:51;;;;;;;9.4;7.2;;;;;;;;;;;;;
2023/09/12 03:01:16;;;;;;;10.4;7.6;;;;;;;;;;;;;
2023/09/12 03:03:41;;;;;;;8.2;7.3;;;;;;;;;;;;;
2023/09/12 03:06:07;;;;;;;9;7.3;;;;;;;;;;;;;
2023/09/12 03:08:32;;;;;;;8;7;;;;;;;;;;;;;
2023/09/12 03:11:01;;;;;;;8.6;7.2;;;;;;;;;;;;;
2023/09/12 03:13:24;;;;;;;8.5;7.2;;;;;;;;;;;;;
2023/09/12 03:15:53;;;;;;;8.8;7.6;;;;;;;;;;;;;
2023/09/12 03:18:18;;;;;;;10.2;7.8;;;;;;;;;;;;;
2023/09/12 03:20:50;;;;;;;8.9;7.6;;;;;;;;;;;;;
2023/09/12 03:23:16;;;;;;;9.4;7.5;;;;;;;;;;;;;
2023/09/12 03:25:41;;;;;;;10.3;8.3;;;;;;;;;;;;;
2023/09/12 03:28:07;;;;;;;9.4;7.3;;;;;;;;;;;;;
2023/09/12 03:30:32;;;;;;;10.1;7.8;;;;;;;;;;;;;
2023/09/12 03:32:59;;;;;;;9.3;7.5;;;;;;;;;;;;;
2023/09/12 03:35:24;;;;;;;9.2;7.3;;;;;;;;;;;;;
2023/09/12 03:37:50;;;;;;;8.1;7.2;;;;;;;;;;;;;
2023/09/12 03:40:15;;;;;;;10.2;7.4;;;;;;;;;;;;;
2023/09/12 03:42:42;;;;;;;8.3;7.1;;;;;;;;;;;;;
2023/09/12 03:45:07;;;;;;;9.8;7.6;;;;;;;;;;;;;
2023/09/12 03:47:32;;;;;;;10.1;8.3;;;;;;;;;;;;;
2023/09/12 03:49:57;;;;;;;9.8;7.9;;;;;;;;;;;;;
2023/09/12 03:52:25;;;;;;;10.5;8.1;;;;;;;;;;;;;
2023/09/12 03:54:50;;;;;;;9.5;7.4;;;;;;;;;;;;;
2023/09/12 03:57:15;;;;;;;8.7;7.8;;;;;;;;;;;;;
2023/09/12 03:59:40;;;;;;;8.5;7.6;;;;;;;;;;;;;
2023/09/12 04:02:32;;;;;;;9;7.6;;;;;;;17.19;91.37793;935.9788;;;;
2023/09/12 04:05:02;;;;;;;10.3;8.1;;;;;;;17;92.12695;935.962;;;;
2023/09/12 04:07:27;;;;;;;10;7.5;;;;;;;17.05;91.94141;936.024;;;;
2023/09/12 04:09:56;;;;;;;10.7;7.5;;;;;;;17.11;91.82715;935.9947;;;;
2023/09/12 04:12:21;;;;;;;10.9;7.3;;;;;;;17.26;90.96387;936.0292;;;;
2023/09/12 04:14:50;;;;;;;9;7.8;;;;;;;17.08;92.05078;936.0564;;;;
2023/09/12 04:17:15;;;;;;;11.5;8;;;;;;;17.1;92.19434;936.0377;;;;
2023/09/12 04:19:47;;;;;;;9.6;7.9;;;;;;;17.01;92.56934;936.0052;;;;
2023/09/12 04:22:17;;;;;;;9.9;7.6;;;;;;;17.12;92.24414;936.0438;;;;
2023/09/12 04:24:42;;;;;;;8.8;7.2;;;;;;;17.18;91.71289;936.048;;;;
2023/09/12 04:27:09;;;;;;;10.1;7.3;;;;;;;17.35;90.55371;936.0474;;;;
2023/09/12 04:29:41;;;;;;;9.9;7.7;;;;;;;17.34;90.2832;936.0179;;;;
2023/09/12 04:32:10;;;;;;;10;7.9;;;;;;;17.18;91.06348;936.0835;;;;
2023/09/12 04:34:35;;;;;;;12.9;8;;;;;;;16.85;92.76855;936.0572;;;;
2023/09/12 04:37:05;;;;;;;10.8;7.6;;;;;;;17.11;91.56055;936.0269;;;;
2023/09/12 04:39:30;;;;;;;10;7.9;;;;;;;17.26;90.88281;936.0083;;;;
2023/09/12 04:42:00;;;;;;;11;8.5;;;;;;;17.15;91.16211;936.0567;;;;
2023/09/12 04:44:25;;;;;;;11.6;8.2;;;;;;;17.16;91.34766;936.0655;;;;
2023/09/12 04:46:55;;;;;;;10.4;7.6;;;;;;;17.28;90.79395;936.0682;;;;
2023/09/12 04:49:19;;;;;;;12.2;7.8;;;;;;;17.28;90.50391;936.1301;;;;
2023/09/12 04:51:45;;;;;;;11.5;7.8;;;;;;;17.26;90.34961;936.1233;;;;
2023/09/12 04:54:14;;;;;;;11.2;7.9;;;;;;;16.91;92.19824;936.1206;;;;
2023/09/12 04:56:39;;;;;;;11.5;8;;;;;;;16.9;92.8125;936.054;;;;
2023/09/12 04:59:10;;;;;;;10.8;8.5;;;;;;;16.95;92.54395;936.0748;;;;
2023/09/12 05:01:40;;;;;;;11.3;7.9;;;;;;;17.05;92.08984;936.1094;;;;
2023/09/12 05:04:05;;;;;;;9.6;7.7;;;;;;;17.01;91.88574;936.0994;;;;
2023/09/12 05:06:30;;;;;;;11;8.1;;;;;;;16.87;92.91113;936.122;;;;
2023/09/12 05:08:56;;;;;;;10.2;8.1;;;;;;;17.09;91.75195;936.132;;;;
2023/09/12 05:11:21;;;;;;;10.1;8;;;;;;;17.27;90.45801;936.1247;;;;
2023/09/12 05:13:46;;;;;;;11.4;8.1;;;;;;;17.35;89.52148;936.1836;;;;
2023/09/12 05:16:18;;;;;;;10.8;8.4;;;;;;;17.32;89.74805;936.2572;;;;
2023/09/12 05:18:46;;;;;;;12.1;8.3;;;;;;;17.43;89.79297;936.2128;;;;
2023/09/12 05:21:11;;;;;;;8.9;7.5;;;;;;;17.37;89.40918;936.2168;;;;
2023/09/12 05:23:36;;;;;;;12.2;7.7;;;;;;;17.42;89.2002;936.2917;;;;
2023/09/12 05:26:06;;;;;;;11;8.2;;;;;;;17.45;89.36816;936.2422;;;;
2023/09/12 05:28:31;;;;;;;10.5;7.8;;;;;;;17.48;89.36133;936.322;;;;
2023/09/12 05:30:59;;;;;;;10.2;7.8;;;;;;;17.44;89.35254;936.347;;;;
2023/09/12 05:33:24;;;;;;;10.9;8;;;;;;;17.45;89.46289;936.3524;;;;
2023/09/12 05:35:49;;;;;;;9;7.5;;;;;;;17.47;89.58203;936.3873;;;;
2023/09/12 05:38:15;;;;;;;9.8;7.8;;;;;;;17.57;89.27734;936.3491;;;;
2023/09/12 05:40:40;;;;;;;9.9;7.5;;;;;;;17.73;88.86719;936.3747;;;;
2023/09/12 05:43:10;;;;;;;11.1;7.5;;;;;;;17.8;89.12598;936.4231;;;;
2023/09/12 05:45:35;;;;;;;9.3;7.4;;;;;;;18.23;89.51465;936.408;;;;
2023/09/12 05:48:03;;;;;;;9;7.3;;;;;;;18.52;85.52832;936.3683;;;;
2023/09/12 05:50:27;;;;;;;9;7.1;;;;;;;18.85;84.38086;936.3474;;;;
2023/09/12 05:52:53;;;;;;;8.6;6.5;;;;;;;19.41;81.41406;936.3742;;;;
2023/09/12 05:55:19;;;;;;;9.1;6.9;;;;;;;19.84;79.19238;936.3398;;;;
2023/09/12 05:57:47;;;;;;;9.2;7.1;;;;;;;20.34;78.52441;936.3544;;;;
2023/09/12 06:00:11;;;;;;;7.5;6.7;;;;;;;20.59;75.88184;936.3865;;;;
2023/09/12 06:02:42;;;;;;;11.4;6.8;;;;;;;21.04;73.41016;936.4536;;;;
2023/09/12 06:05:11;;;;;;;11.4;7;;;;;;;21.19;72.47266;936.4301;;;;
2023/09/12 06:07:37;;;;;;;9.5;7;;;;;;;21.68;71.79297;936.4285;;;;
2023/09/12 06:10:03;;;;;;;9.9;6.7;;;;;;;21.81;69.74316;936.366;;;;
2023/09/12 06:12:28;;;;;;;8.8;6.2;;;;;;;21.92;68.80957;936.3759;;;;
2023/09/12 06:14:55;;;;;;;7.6;6.1;;;;;;;21.94;69.21191;936.3064;;;;
2023/09/12 06:17:18;;;;;;;8;7;;;;;;;21.97;68.94629;936.3613;;;;
2023/09/12 06:19:44;;;;;;;9;6.8;;;;;;;22.07;68.63379;936.3409;;;;
2023/09/12 06:22:09;;;;;;;8.4;6.6;;;;;;;22;69.57031;936.2913;;;;
2023/09/12 06:24:34;;;;;;;9.4;7;;;;;;;22.03;69.98633;936.3261;;;;
2023/09/12 06:27:01;;;;;;;10;6.7;;;;;;;22.38;68.17676;936.1792;;;;
2023/09/12 06:29:26;;;;;;;9.2;7.7;;;;;;;22.01;69.64355;936.299;;;;
2023/09/12 06:31:51;;;;;;;9.6;8;;;;;;;21.99;69.74609;936.2583;;;;
2023/09/12 06:34:16;;;;;;;8.6;6.6;;;;;;;21.83;70.86914;936.2791;;;;
2023/09/12 06:36:45;;;;;;;7.8;6.9;;;;;;;22.18;69.62402;936.2508;;;;
2023/09/12 06:39:09;;;;;;;8.2;6.5;;;;;;;22.37;69.16113;936.2575;;;;
2023/09/12 06:41:36;;;;;;;10.5;6.9;;;;;;;22.14;70.7666;936.2661;;;;
2023/09/12 06:44:02;;;;;;;9.8;7.2;;;;;;;22.03;70.65332;936.3156;;;;
2023/09/12 06:46:30;;;;;;;7.7;6.6;;;;;;;21.9;72.08691;936.3329;;;;
2023/09/12 06:48:56;;;;;;;8.8;6.9;;;;;;;22.07;70.76563;936.2982;;;;
2023/09/12 06:51:21;;;;;;;7.9;7.1;;;;;;;22.35;70.49414;936.3201;;;;
2023/09/12 06:53:50;;;;;;;8;6.7;;;;;;;22.53;70.11133;936.3287;;;;
2023/09/12 06:56:14;;;;;;;8.5;6.7;;;;;;;22.58;68.91113;936.3329;;;;
2023/09/12 06:58:41;;;;;;;7.8;7;;;;;;;22.48;68.53223;936.3436;;;;
2023/09/12 07:01:07;;;;;;;8.1;6.7;;;;;;;22.47;68.35449;936.3894;;;;
2023/09/12 07:03:33;;;;;;;8.8;6.9;;;;;;;22.16;69.04492;936.4219;;;;
2023/09/12 07:05:58;;;;;;;8.7;6.9;;;;;;;22.56;68.89551;936.4045;;;;
2023/09/12 07:08:24;;;;;;;7.6;6.8;;;;;;;23.06;67.1543;936.4509;;;;
2023/09/12 07:10:49;;;;;;;8.9;6.7;;;;;;;23.61;66.07129;936.4406;;;;
2023/09/12 07:13:15;;;;;;;8.2;6.6;;;;;;;24.18;62.96387;936.3672;;;;
2023/09/12 07:15:41;;;;;;;7.3;6.5;;;;;;;25;60.02441;936.4125;;;;
2023/09/12 07:18:07;;;;;;;8.8;6.7;;;;;;;25.33;59.75;936.4294;;;;
2023/09/12 07:20:32;;;;;;;9.5;6.5;;;;;;;25.84;57.2998;936.4383;;;;
2023/09/12 07:23:02;;;;;;;7.8;6.4;;;;;;;26.55;54.57227;936.4611;;;;
2023/09/12 07:25:27;;;;;;;8.5;6.5;;;;;;;27.54;52.40332;936.4695;;;;
2023/09/12 07:27:54;;;;;;;7.2;6.5;;;;;;;27.39;51.70898;936.4487;;;;
2023/09/12 07:30:20;;;;;;;7.3;6.5;;;;;;;28.27;50.37109;936.3519;;;;
2023/09/12 07:32:46;;;;;;;8.3;6.2;;;;;;;28.34;49.15527;936.3538;;;;
2023/09/12 07:35:11;;;;;;;7.6;6.2;;;;;;;28.73;49.81641;936.378;;;;
2023/09/12 07:37:37;;;;;;;7.1;5.8;;;;;;;28.26;50.19238;936.3287;;;;
2023/09/12 07:40:06;;;;;;;6.8;5.8;;;;;;;29.55;47.42773;936.3964;;;;
2023/09/12 07:42:27;;;;;;;7.2;5.9;;;;;;;30.05;45.51172;936.358;;;;
2023/09/12 07:44:54;;;;;;;8.9;6.1;;;;;;;30.66;44.59375;936.3535;;;;
2023/09/12 07:47:19;;;;;;;6.8;6.1;;;;;;;30.12;45.29199;936.3549;;;;
2023/09/12 07:49:44;;;;;;;6.3;5.6;;;;;;;30.38;45.54492;936.3353;;;;
2023/09/12 07:52:10;;;;;;;7.1;5.8;;;;;;;30.33;44.75195;936.3847;;;;
2023/09/12 07:54:38;;;;;;;7.5;6.1;;;;;;;29.52;46.34082;936.3663;;;;
2023/09/12 07:57:02;;;;;;;7.1;6.4;;;;;;;28.47;48.36035;936.3067;;;;
2023/09/12 07:59:29;;;;;;;7.1;6;;;;;;;28.6;49.80176;936.3642;;;;
2023/09/12 08:01:54;;;;;;;6.6;5.9;;;;;;;28.26;49.39648;936.313;;;;
2023/09/12 08:04:21;;;;;;;7.3;6.1;;;;;;;27.9;50.14063;936.2502;;;;
2023/09/12 08:06:46;;;;;;;7.1;6.4;;;;;;;27.34;50.81348;936.2825;;;;
2023/09/12 08:09:12;;;;;;;7.2;6.1;;;;;;;27.77;50.66016;936.2478;;;;
2023/09/12 08:11:37;;;;;;;7.2;5.9;;;;;;;28.22;52.63672;936.2625;;;;
2023/09/12 08:14:02;;;;;;;8.7;5.8;;;;;;;28.29;51.13477;936.2455;;;;
2023/09/12 08:16:28;;;;;;;6.8;6.1;;;;;;;28.24;51.61719;936.2583;;;;
2023/09/12 08:18:54;;;;;;;6.8;6.1;;;;;;;28.23;50.66504;936.2438;;;;
2023/09/12 08:21:19;;;;;;;6.5;5.9;;;;;;;28.64;49.50977;936.22;;;;
2023/09/12 08:23:45;;;;;;;6.1;5.5;;;;;;;28.37;49.19434;936.1749;;;;
2023/09/12 08:26:11;;;;;;;8.1;6.5;;;;;;;28.24;49.70215;936.2159;;;;
2023/09/12 08:28:37;;;;;;;6.6;6;;;;;;;28.05;50.53809;936.1936;;;;
2023/09/12 08:31:04;;;;;;;8.6;6;;;;;;;27.79;51.30371;936.1778;;;;
2023/09/12 08:33:27;;;;;;;8.7;6.2;;;;;;;28.05;52.68652;936.1547;;;;
2023/09/12 08:35:53;;;;;;;8.6;6.5;;;;;;;28.09;51.04102;936.1289;;;;
2023/09/12 08:38:18;;;;;;;6.6;5.9;;;;;;;27.69;50.08203;936.165;;;;
2023/09/12 08:40:44;;;;;;;8;5.7;;;;;;;27.17;51.56445;936.2217;;;;
2023/09/12 08:43:08;;;;;;;7;6.3;;;;;;;27.34;52.10645;936.1559;;;;
2023/09/12 08:45:35;;;;;;;6.9;6.1;;;;;;;27.47;50.8877;936.1694;;;;
2023/09/12 08:48:00;;;;;;;6.7;6;;;;;;;27.37;51.80078;936.1426;;;;
2023/09/12 08:50:30;;;;;;;8.1;6.9;;;;;;;27.46;51.83594;936.1415;;;;
2023/09/12 08:52:53;;;;;;;9.3;6.7;;;;;;;27.07;51.9209;936.1122;;;;
2023/09/12 08:55:20;;;;;;;9.1;6.9;;;;;;;27.07;54.81348;936.1024;;;;
2023/09/12 08:57:45;;;;;;;17.4;11.5;;;;;;;27.38;54.29395;936.0796;;;;
2023/09/12 09:00:14;;;;;;;13.3;8.9;;;;;;;27.43;55.2959;936.0933;;;;
2023/09/12 09:02:36;;;;;;;16.3;11.4;;;;;;;27.24;54.12305;936.1191;;;;
2023/09/12 09:05:01;;;;;;;52.8;30.5;;;;;;;27.54;56.29492;936.1255;;;;
2023/09/12 09:07:26;;;;;;;34.7;19.2;;;;;;;27.54;54.46777;936.1406;;;;
2023/09/12 09:09:53;;;;;;;10.2;6.7;;;;;;;27.48;54.06934;936.0912;;;;
2023/09/12 09:12:18;;;;;;;11.6;8.7;;;;;;;27.7;55.40039;936.0711;;;;
2023/09/12 09:14:46;;;;;;;8.5;6.7;;;;;;;27.88;53.27344;936.0226;;;;
2023/09/12 09:17:13;;;;;;;10;6.6;;;;;;;28.17;54.27051;936.0422;;;;
2023/09/12 09:19:36;;;;;;;9.6;7.1;;;;;;;27.99;52.77441;935.9934;;;;
2023/09/12 09:22:01;;;;;;;13.2;8.5;;;;;;;27.98;55.75586;935.9777;;;;
2023/09/12 09:24:27;;;;;;;7.5;6.3;;;;;;;28.09;53.58301;935.9998;;;;
2023/09/12 09:26:58;;;;;;;11.3;8.1;;;;;;;28.25;55.56445;935.962;;;;
2023/09/12 09:29:17;;;;;;;7.9;6.7;;;;;;;28.26;53.00977;935.9847;;;;
2023/09/12 09:31:44;;;;;;;8.4;6.3;;;;;;;28.5;53.81055;935.9748;;;;
2023/09/12 09:34:10;;;;;;;7.3;6.3;;;;;;;28.67;53.24805;935.9312;;;;
2023/09/12 09:36:35;;;;;;;7.1;6;;;;;;;28.45;51.5459;935.9191;;;;
2023/09/12 09:39:03;;;;;;;7.2;6.5;;;;;;;28.51;51.19531;935.88;;;;
2023/09/12 09:41:25;;;;;;;7.1;6.3;;;;;;;28.63;52.35156;935.9023;;;;
2023/09/12 09:43:50;;;;;;;7.1;6.4;;;;;;;28.76;52.31934;935.8406;;;;
2023/09/12 09:46:17;;;;;;;7.4;6.6;;;;;;;28.58;50.77539;935.8444;;;;
2023/09/12 09:48:42;;;;;;;9.7;6.6;;;;;;;28.73;50.64844;935.8309;;;;
2023/09/12 09:51:08;;;;;;;7.3;6.1;;;;;;;28.98;50.80762;935.8354;;;;
2023/09/12 09:53:34;;;;;;;6.9;6.2;;;;;;;29.14;51.0166;935.8391;;;;
2023/09/12 09:55:59;;;;;;;6.3;5.7;;;;;;;29.23;51.00293;935.892;;;;
2023/09/12 09:58:27;;;;;;;8.8;6.7;;;;;;;28.93;51.13672;935.8801;;;;
2023/09/12 10:00:50;;;;;;;8.7;6.3;;;;;;;29.05;50.79297;935.8434;;;;
2023/09/12 10:03:17;;;;;;;7.7;6.2;;;;;;;29.01;50.21777;935.7658;;;;
2023/09/12 10:05:42;;;;;;;7.8;6.4;;;;;;;29.08;50.17676;935.6804;;;;
2023/09/12 10:08:10;;;;;;;9.4;6.5;;;;;;;29.07;49.56836;935.7001;;;;
2023/09/12 10:10:36;;;;;;;7.6;5.9;;;;;;;29.3;47.42676;935.6912;;;;
2023/09/12 10:13:00;;;;;;;8.2;6.4;;;;;;;29.29;51.9043;935.6575;;;;
2023/09/12 10:15:25;;;;;;;8.6;6.8;;;;;;;28.72;48.42383;935.6174;;;;
2023/09/12 10:17:52;;;;;;;7.2;6.5;;;;;;;28.88;50.5;935.6113;;;;
2023/09/12 10:20:17;;;;;;;7.1;6;;;;;;;28.94;52.67383;935.5951;;;;
2023/09/12 10:22:42;;;;;;;8.5;6.2;;;;;;;28.89;50.69141;935.5814;;;;
2023/09/12 10:25:07;;;;;;;6.7;6;;;;;;;28.89;51.56055;935.5742;;;;
2023/09/12 10:27:35;;;;;;;7.2;6.1;;;;;;;29.39;50.36621;935.5831;;;;
2023/09/12 10:30:00;;;;;;;6.7;5.9;;;;;;;29.69;49.02832;935.5928;;;;
2023/09/12 10:32:26;;;;;;;10.1;6.2;;;;;;;29.96;47.47168;935.5789;;;;
2023/09/12 10:34:52;;;;;;;7.5;6.3;;;;;;;30.56;46.45801;935.5134;;;;
2023/09/12 10:37:17;;;;;;;7.4;6.6;;;;;;;30.54;46.5293;935.4933;;;;
2023/09/12 10:39:42;;;;;;;7.1;6.4;;;;;;;30.56;46.99609;935.4559;;;;
2023/09/12 10:42:07;;;;;;;8.1;6.2;;;;;;;30.42;47.74609;935.4486;;;;
2023/09/12 10:44:32;;;;;;;10;6.3;;;;;;;30.72;48.4707;935.444;;;;
2023/09/12 10:46:59;;;;;;;9;6.4;;;;;;;30.6;47.63477;935.4562;;;;
2023/09/12 10:49:24;;;;;;;8.8;6.4;;;;;;;30.49;47.64746;935.4313;;;;
2023/09/12 10:51:49;;;;;;;7.5;6.1;;;;;;;29.9;49.83789;935.3872;;;;
2023/09/12 10:54:16;;;;;;;10.8;6.5;;;;;;;30.01;50.57813;935.4042;;;;
2023/09/12 10:56:41;;;;;;;7;6;;;;;;;29.67;50.21875;935.418;;;;
2023/09/12 10:59:09;;;;;;;7.2;6.2;;;;;;;29.35;50.30273;935.4332;;;;
2023/09/12 11:01:33;;;;;;;6.8;6.1;;;;;;;29.43;49.77539;935.4207;;;;
2023/09/12 11:03:58;;;;;;;7.5;6.7;;;;;;;29.47;51.07715;935.4314;;;;
2023/09/12 11:06:24;;;;;;;6.8;6;;;;;;;29.28;52.52148;935.3964;;;;
2023/09/12 11:08:48;;;;;;;6.6;5.9;;;;;;;29.19;50.89063;935.3823;;;;
2023/09/12 11:11:15;;;;;;;7.4;6;;;;;;;29.07;52.4873;935.3783;;;;
2023/09/12 11:13:41;;;;;;;6.2;5.6;;;;;;;29.14;51.60156;935.363;;;;
2023/09/12 11:16:05;;;;;;;5.9;5.3;;;;;;;29.55;48.40527;935.3122;;;;
2023/09/12 11:18:59;;;;;;;7.7;5.6;;;;;;;30.77;46.91016;935.2631;;;;
2023/09/12 11:21:24;;;;;;;5.6;4.9;;;;;;;31.4;44.79785;935.291;;;;
2023/09/12 11:23:49;;;;;;;6.8;5.3;;;;;;;31.93;44.56348;935.25;;;;
2023/09/12 11:26:15;;;;;;;6;5.4;;;;;;;31.74;44.4248;935.3002;;;;
2023/09/12 11:28:42;;;;;;;7;5.7;;;;;;;31.67;45.42285;935.287;;;;
2023/09/12 11:31:05;;;;;;;6;5.4;;;;;;;31.45;48.17773;935.24;;;;
2023/09/12 11:33:30;;;;;;;5.9;5.4;;;;;;;31.58;45.16309;935.214;;;;
2023/09/12 11:35:57;;;;;;;7.1;5.4;;;;;;;32.07;44.03809;935.1758;;;;
2023/09/12 11:38:22;;;;;;;6.6;5.3;;;;;;;31.8;43.21973;935.1347;;;;
2023/09/12 11:40:47;;;;;;;5.8;5;;;;;;;32.01;42.18652;935.149;;;;
2023/09/12 11:43:14;;;;;;;5.5;5;;;;;;;31.1;48.12988;935.1404;;;;
2023/09/12 11:45:40;;;;;;;6.5;5.5;;;;;;;31.31;46.0459;935.1097;;;;
2023/09/12 11:48:05;;;;;;;5.3;4.8;;;;;;;31.68;45.47168;935.0497;;;;
2023/09/12 11:50:30;;;;;;;5.2;4.7;;;;;;;31.31;47.24219;934.9774;;;;
2023/09/12 11:52:56;;;;;;;6.2;4.9;;;;;;;30.89;47.12598;935.0894;;;;
2023/09/12 11:55:21;;;;;;;9.2;5.2;;;;;;;30.35;47.9541;935.0162;;;;
2023/09/12 11:57:47;;;;;;;6.1;5.5;;;;;;;30.24;50.29492;935.0359;;;;
2023/09/12 12:00:12;;;;;;;5.8;5.2;;;;;;;30.6;45.65137;934.9933;;;;
2023/09/12 12:02:39;;;;;;;6.2;5;;;;;;;30.45;47.64258;935.0101;;;;
2023/09/12 12:05:04;;;;;;;7.2;4.9;;;;;;;30.14;47.34766;934.9443;;;;
2023/09/12 12:07:29;;;;;;;6.3;5.7;;;;;;;30.55;45.26367;934.9083;;;;
2023/09/12 12:09:54;;;;;;;6.2;5.1;;;;;;;30.85;43.70313;934.8773;;;;
2023/09/12 12:12:20;;;;;;;6.2;5.2;;;;;;;30.66;46.25293;934.8697;;;;
2023/09/12 12:14:46;;;;;;;5.6;5.1;;;;;;;30;50.81641;934.8642;;;;
2023/09/12 12:17:13;;;;;;;6.4;5.1;;;;;;;30.35;49.1123;934.8191;;;;
2023/09/12 12:19:38;;;;;;;7.1;5.6;;;;;;;30.23;47.98828;934.8073;;;;
2023/09/12 12:22:05;;;;;;;6.6;5.2;;;;;;;30.37;45.51953;934.8173;;;;
2023/09/12 12:24:29;;;;;;;6.2;5.6;;;;;;;30.62;46.25;934.7617;;;;
2023/09/12 12:26:56;;;;;;;6.3;5.7;;;;;;;30.32;48.14258;934.7374;;;;
2023/09/12 12:29:21;;;;;;;6.1;5.5;;;;;;;30.5;47.54102;934.7015;;;;
2023/09/12 12:31:49;;;;;;;6.3;5.7;;;;;;;30.48;48.76758;934.6834;;;;
2023/09/12 12:34:14;;;;;;;6;5.4;;;;;;;30.55;47.36621;934.7048;;;;
2023/09/12 12:36:39;;;;;;;9.2;6.2;;;;;;;30.82;46.60449;934.6859;;;;
2023/09/12 12:39:05;;;;;;;7.2;5.7;;;;;;;31;47.25781;934.707;;;;
2023/09/12 12:41:32;;;;;;;6.7;6;;;;;;;31.07;46.41504;934.6749;;;;
2023/09/12 12:43:58;;;;;;;6.1;5.5;;;;;;;30.97;45.16211;934.6369;;;;
2023/09/12 12:46:23;;;;;;;7.4;5.7;;;;;;;30.99;46.02539;934.6359;;;;
2023/09/12 12:48:48;;;;;;;7.7;5.7;;;;;;;30.85;47.58887;934.5826;;;;
2023/09/12 12:51:16;;;;;;;7.8;5.8;;;;;;;30.85;48.40234;934.5339;;;;
2023/09/12 12:53:39;;;;;;;6.9;6.2;;;;;;;30.88;45.8457;934.4842;;;;
2023/09/12 12:56:07;;;;;;;6.2;5.6;;;;;;;30.93;45.00195;934.4644;;;;
2023/09/12 12:58:32;;;;;;;7.2;5.4;;;;;;;30.75;46.51465;934.4573;;;;
2023/09/12 13:00:58;;;;;;;7.5;6.1;;;;;;;30.82;46.49805;934.4026;;;;
2023/09/12 13:03:23;;;;;;;7;6;;;;;;;30.69;48.33594;934.4558;;;;
2023/09/12 13:05:48;;;;;;;6.5;5.7;;;;;;;30.51;47.24219;934.4975;;;;
2023/09/12 13:08:14;;;;;;;7.8;6;;;;;;;30.28;48.59082;934.4144;;;;
2023/09/12 13:10:42;;;;;;;7.1;6;;;;;;;29.86;49.63086;934.3423;;;;
2023/09/12 13:13:05;;;;;;;8.3;6.2;;;;;;;29.8;50.33984;934.289;;;;
2023/09/12 13:15:31;;;;;;;6.9;5.9;;;;;;;29.94;48.97168;934.2523;;;;
2023/09/12 13:17:56;;;;;;;8;6.3;;;;;;;30.11;50.43457;934.2023;;;;
2023/09/12 13:20:21;;;;;;;6.9;6.1;;;;;;;29.98;49.51367;934.1848;;;;
2023/09/12 13:22:46;;;;;;;7.1;6.4;;;;;;;30.11;48.7998;934.1997;;;;
2023/09/12 13:25:15;;;;;;;7.5;6.1;;;;;;;30.06;48.3418;934.1449;;;;
2023/09/12 13:27:39;;;;;;;6.3;5.7;;;;;;;30.14;48.3623;934.1088;;;;
2023/09/12 13:30:05;;;;;;;8.2;6.3;;;;;;;30.1;48.66699;934.0355;;;;
2023/09/12 13:32:31;;;;;;;6.9;5.8;;;;;;;30.25;48.71875;933.9632;;;;
2023/09/12 13:34:56;;;;;;;5.8;5.2;;;;;;;30.36;47.71582;933.9667;;;;
2023/09/12 13:37:21;;;;;;;5.9;5.1;;;;;;;30.56;47.13965;933.9913;;;;
2023/09/12 13:39:49;;;;;;;7.7;6.2;;;;;;;30.54;47.87891;933.9655;;;;
2023/09/12 13:42:14;;;;;;;6.1;5.5;;;;;;;30.62;47.21777;934.0159;;;;
2023/09/12 13:44:39;;;;;;;7;5.9;;;;;;;30.52;47.11133;934.0249;;;;
2023/09/12 13:47:04;;;;;;;6.6;5.9;;;;;;;30.2;50.43262;933.9808;;;;
2023/09/12 13:49:30;;;;;;;6.8;5.9;;;;;;;30.17;50.25098;934.0195;;;;
2023/09/12 13:51:55;;;;;;;7.6;6.3;;;;;;;29.95;50.87012;933.9476;;;;
2023/09/12 13:54:21;;;;;;;8.5;6.5;;;;;;;29.79;50.55469;933.9495;;;;
2023/09/12 13:56:46;;;;;;;7.2;5.8;;;;;;;29.8;50.19727;933.9563;;;;
2023/09/12 13:59:12;;;;;;;8.3;6.1;;;;;;;29.9;52.32031;933.9893;;;;
2023/09/12 14:01:37;;;;;;;7.6;6;;;;;;;29.81;49.94824;933.9973;;;;
2023/09/12 14:04:04;;;;;;;6.8;6.1;;;;;;;29.7;50.25977;933.9777;;;;
2023/09/12 14:06:29;;;;;;;8.5;6.4;;;;;;;29.67;50.39746;933.9632;;;;
2023/09/12 14:08:56;;;;;;;7.4;5.9;;;;;;;29.79;50.33984;934.0316;;;;
2023/09/12 14:11:21;;;;;;;6.6;6;;;;;;;29.97;50.47949;933.9825;;;;
2023/09/12 14:13:47;;;;;;;6.6;5.9;;;;;;;29.86;49.2373;934.0034;;;;
2023/09/12 14:16:12;;;;;;;6.9;6;;;;;;;29.87;49.14355;933.9952;;;;
2023/09/12 14:18:38;;;;;;;8.6;5.8;;;;;;;29.95;49.31934;933.9504;;;;
2023/09/12 14:21:03;;;;;;;7.9;6.2;;;;;;;29.98;49.19043;934.0406;;;;
2023/09/12 14:23:30;;;;;;;6.5;5.9;;;;;;;29.99;49.07324;933.9738;;;;
2023/09/12 14:25:55;;;;;;;6.7;6;;;;;;;29.89;48.79883;934.0374;;;;
2023/09/12 14:28:21;;;;;;;7.9;6;;;;;;;30.02;49.32715;934.0698;;;;
2023/09/12 14:30:48;;;;;;;6.4;5.6;;;;;;;30;49.49121;933.9783;;;;
2023/09/12 14:33:11;;;;;;;9.6;6.1;;;;;;;30.08;49.65527;933.9774;;;;
2023/09/12 14:35:38;;;;;;;7.8;6;;;;;;;30.14;49.55566;934.0168;;;;
2023/09/12 14:38:04;;;;;;;6.9;5.3;;;;;;;30.13;49.29102;934.0021;;;;
2023/09/12 14:40:29;;;;;;;9.2;6.1;;;;;;;29.83;51.53809;933.9294;;;;
2023/09/12 14:42:54;;;;;;;6.7;6;;;;;;;29.76;48.94043;933.915;;;;
2023/09/12 14:45:19;;;;;;;7.6;5.7;;;;;;;29.81;50.35352;933.9816;;;;
2023/09/12 14:47:45;;;;;;;7.4;6;;;;;;;29.84;50.66699;933.9389;;;;
2023/09/12 14:50:15;;;;;;;6.8;5.9;;;;;;;29.89;50.43359;933.9324;;;;
2023/09/12 14:52:40;;;;;;;8.2;5.9;;;;;;;29.7;51.58105;933.9334;;;;
2023/09/12 14:55:05;;;;;;;9.6;6;;;;;;;29.55;52.48145;933.9545;;;;
2023/09/12 14:57:30;;;;;;;7.1;5.8;;;;;;;29.43;50.75293;933.9882;;;;
2023/09/12 14:59:55;;;;;;;7.3;6.1;;;;;;;29.51;50.30859;933.9659;;;;
2023/09/12 15:02:20;;;;;;;7.3;5.8;;;;;;;29.49;50.6875;933.9487;;;;
2023/09/12 15:04:45;;;;;;;7.3;6;;;;;;;29.33;50.5625;933.9931;;;;
2023/09/12 15:07:10;;;;;;;7.4;5.9;;;;;;;29.12;49.96777;933.9877;;;;
2023/09/12 15:09:36;;;;;;;6.5;5.7;;;;;;;29.12;50.4668;933.9575;;;;
2023/09/12 15:12:01;;;;;;;9.2;6.1;;;;;;;29.11;50.65625;933.991;;;;